Terminal Aerodrome Forecast
Issued by NWS

Home | Current Version | Previous Version | Text Only | Print | Product List | Glossary On
Versions: 1 2 3 4 5 6 7 8 9 10 11 12
000
FTUS44 KLIX 290500
TAFGPT
TAF
KGPT 290520Z 2906/3006 13004KT P6SM FEW030 SCT250
     FM291500 14008KT P6SM VCSH SCT035 BKN060
      TEMPO 2918/2922 3SM -TSRA SCT030CB BKN040
     FM300200 15004KT P6SM SCT035 BKN100=

USA.gov is the U.S. government's official web portal to all federal, state and local government web resources and services.